Time;durP1;ratioP1;P1;durP2;ratioP2;P2;SDS_P1;SDS_P2;PMS_P1;PMS_P2;Temp;Humidity;BMP_temperature;BMP_pressure;BME280_temperature;BME280_humidity;BME280_pressure;Samples;Min_cycle;Max_cycle;Signal;HPM_P1;HPM_P2
2023/07/13 00:00:56;;;;;;;8.83;2.27;;;;;;;;;;5055527;28;20224;-66
2023/07/13 00:03:22;;;;;;;4.93;2.17;;;;;;;;;;5055642;28;20678;-66
2023/07/13 00:05:48;;;;;;;6.20;2.23;;;;;;;;;;5055827;28;20194;-66
2023/07/13 00:08:14;;;;;;;5.90;2.57;;;;;;;;;;5055541;28;20252;-66
2023/07/13 00:10:41;;;;;;;5.73;2.40;;;;;;;;;;5037478;28;20252;-66
2023/07/13 00:13:08;;;;;;;4.83;2.00;;;;;;;;;;5037293;28;20247;-66
2023/07/13 00:15:35;;;;;;;4.33;1.93;;;;;;;;;;5055355;28;20644;-66
2023/07/13 00:18:01;;;;;;;12.00;2.60;;;;;;;;;;5055361;28;20182;-66
2023/07/13 00:20:27;;;;;;;7.20;1.70;;;;;;;;;;5055302;28;20182;-66
2023/07/13 00:22:53;;;;;;;8.20;2.17;;;;;;;;;;5037003;28;20293;-66
2023/07/13 00:25:24;;;;;;;5.27;1.87;;;;;;;;;;5055207;28;20178;-66
2023/07/13 00:27:50;;;;;;;4.53;1.97;;;;;;;;;;5055000;28;20171;-66
2023/07/13 00:30:16;;;;;;;5.93;2.07;;;;;;;;;;5054710;28;20668;-66
2023/07/13 00:32:42;;;;;;;8.50;2.80;;;;;;;;;;5036765;28;20210;-67
2023/07/13 00:35:08;;;;;;;7.80;2.13;;;;;;;;;;5054733;28;20174;-66
2023/07/13 00:37:35;;;;;;;6.77;2.33;;;;;;;;;;5035943;28;20265;-66
2023/07/13 00:40:02;;;;;;;8.17;2.27;;;;;;;;;;5055066;28;20312;-66
2023/07/13 00:42:28;;;;;;;5.20;2.10;;;;;;;;;;5036830;28;20204;-66
2023/07/13 00:45:12;;;;;;;5.67;1.93;;;;;;;;;;5054763;28;20174;-66
2023/07/13 00:47:38;;;;;;;5.40;2.30;;;;;;;;;;5054856;28;20174;-66
2023/07/13 00:50:07;;;;;;;8.97;2.20;;;;;;;;;;5054742;28;20202;-66
2023/07/13 00:52:33;;;;;;;6.03;2.17;;;;;;;;;;5054613;28;20230;-66
2023/07/13 00:54:59;;;;;;;5.07;2.23;;;;;;;;;;5054961;28;20174;-66
2023/07/13 00:57:25;;;;;;;6.40;2.30;;;;;;;;;;5036808;28;20186;-65
2023/07/13 00:59:54;;;;;;;6.03;2.30;;;;;;;;;;5036662;28;20198;-66
2023/07/13 01:02:21;;;;;;;4.40;2.20;;;;;;;;;;5036615;28;20199;-66
2023/07/13 01:04:47;;;;;;;9.53;2.20;;;;;;;;;;5036581;28;20182;-66
2023/07/13 01:07:14;;;;;;;8.20;1.97;;;;;;;;;;5054371;28;20254;-66
2023/07/13 01:09:40;;;;;;;6.97;2.37;;;;;;;;;;5054266;28;20175;-66
2023/07/13 01:12:06;;;;;;;7.53;2.33;;;;;;;;;;5054196;28;20220;-66
2023/07/13 01:14:32;;;;;;;10.73;2.33;;;;;;;;;;5054572;28;20170;-66
2023/07/13 01:17:00;;;;;;;14.13;3.10;;;;;;;;;;5054130;28;20178;-66
2023/07/13 01:19:40;;;;;;;11.47;2.07;;;;;;;;;;5036350;28;20186;-66
2023/07/13 01:22:13;;;;;;;6.43;2.40;;;;;;;;;;5054298;28;20198;-67
2023/07/13 01:24:40;;;;;;;7.57;2.60;;;;;;;;;;5054650;28;20155;-66
2023/07/13 01:27:06;;;;;;;6.60;2.40;;;;;;;;;;5053839;28;20301;-66
2023/07/13 01:29:33;;;;;;;8.97;2.30;;;;;;;;;;5053889;28;20179;-66
2023/07/13 01:32:00;;;;;;;5.73;2.40;;;;;;;;;;5053751;28;20214;-66
2023/07/13 01:34:27;;;;;;;5.30;2.10;;;;;;;;;;5053899;28;20174;-66
2023/07/13 01:36:53;;;;;;;7.80;2.63;;;;;;;;;;5054509;28;20287;-66
2023/07/13 01:39:20;;;;;;;6.73;2.30;;;;;;;;;;5054978;28;20166;-66
2023/07/13 01:41:46;;;;;;;5.77;2.40;;;;;;;;;;5044506;28;20258;-66
2023/07/13 01:44:12;;;;;;;5.80;2.30;;;;;;;;;;5036921;28;20186;-66
2023/07/13 01:46:38;;;;;;;7.33;2.40;;;;;;;;;;5053976;28;20182;-66
2023/07/13 01:49:04;;;;;;;6.87;2.53;;;;;;;;;;5053247;28;20213;-66
2023/07/13 01:51:30;;;;;;;7.33;2.43;;;;;;;;;;5053301;28;20252;-66
2023/07/13 01:53:56;;;;;;;4.70;2.10;;;;;;;;;;5053751;28;20261;-66
2023/07/13 01:56:21;;;;;;;6.73;2.63;;;;;;;;;;5053355;28;20224;-66
2023/07/13 01:58:47;;;;;;;5.83;2.47;;;;;;;;;;5053612;28;20183;-66
2023/07/13 02:01:13;;;;;;;12.40;2.57;;;;;;;;;;5053310;28;20183;-66
2023/07/13 02:03:39;;;;;;;8.93;2.90;;;;;;;;;;5053338;28;20185;-66
2023/07/13 02:06:06;;;;;;;12.57;2.73;;;;;;;;;;5053918;28;20206;-66
2023/07/13 02:08:33;;;;;;;3.67;2.10;;;;;;;;;;5053235;28;20186;-66
2023/07/13 02:10:59;;;;;;;7.20;2.73;;;;;;;;;;5035316;28;20214;-66
2023/07/13 02:13:25;;;;;;;4.23;2.30;;;;;;;;;;5053441;28;20312;-66
2023/07/13 02:15:51;;;;;;;8.50;2.70;;;;;;;;;;5053224;28;20174;-66
2023/07/13 02:18:17;;;;;;;10.70;2.40;;;;;;;;;;5035175;28;20714;-66
2023/07/13 02:20:44;;;;;;;4.50;2.27;;;;;;;;;;5053127;28;20201;-66
2023/07/13 02:23:10;;;;;;;5.53;2.60;;;;;;;;;;5035315;28;20209;-66
2023/07/13 02:25:36;;;;;;;5.83;2.23;;;;;;;;;;5053111;28;20176;-66
2023/07/13 02:28:02;;;;;;;5.67;2.40;;;;;;;;;;5035228;28;20178;-66
2023/07/13 02:30:29;;;;;;;9.83;2.43;;;;;;;;;;5053077;28;20209;-66
2023/07/13 02:32:55;;;;;;;6.90;2.50;;;;;;;;;;5052889;28;20710;-66
2023/07/13 02:35:22;;;;;;;6.93;2.50;;;;;;;;;;5035545;28;20178;-66
2023/07/13 02:37:48;;;;;;;4.57;2.20;;;;;;;;;;5035017;28;20183;-66
2023/07/13 02:40:14;;;;;;;5.80;2.40;;;;;;;;;;5052719;28;20201;-66
2023/07/13 02:42:40;;;;;;;8.17;2.43;;;;;;;;;;5052914;28;20676;-66
2023/07/13 02:45:06;;;;;;;5.80;2.47;;;;;;;;;;5052913;28;20185;-66
2023/07/13 02:47:33;;;;;;;6.63;2.40;;;;;;;;;;5035064;28;20183;-66
2023/07/13 02:49:59;;;;;;;8.60;2.80;;;;;;;;;;5034840;28;20182;-67
2023/07/13 02:52:25;;;;;;;7.10;2.53;;;;;;;;;;5034870;28;20684;-66
2023/07/13 02:54:51;;;;;;;8.20;2.60;;;;;;;;;;5053097;28;20679;-66
2023/07/13 02:57:17;;;;;;;7.37;2.77;;;;;;;;;;5035047;28;20240;-66
2023/07/13 02:59:43;;;;;;;7.60;2.70;;;;;;;;;;5036059;28;20566;-66
2023/07/13 03:02:10;;;;;;;5.57;2.30;;;;;;;;;;5056770;28;20191;-66
2023/07/13 03:04:36;;;;;;;5.67;2.70;;;;;;;;;;5056778;28;20213;-66
2023/07/13 03:07:03;;;;;;;8.37;2.60;;;;;;;;;;5056640;28;20667;-66
2023/07/13 03:09:29;;;;;;;7.10;2.63;;;;;;;;;;5056966;28;20171;-66
2023/07/13 03:11:55;;;;;;;4.93;2.53;;;;;;;;;;5056260;28;20289;-66
2023/07/13 03:14:23;;;;;;;9.93;3.23;;;;;;;;;;5056334;28;20547;-66
2023/07/13 03:16:49;;;;;;;6.87;2.90;;;;;;;;;;5056198;28;20171;-67
2023/07/13 03:19:15;;;;;;;6.23;2.63;;;;;;;;;;5056428;28;20224;-66
2023/07/13 03:21:41;;;;;;;5.37;2.37;;;;;;;;;;5056182;28;20199;-66
2023/07/13 03:24:07;;;;;;;15.90;3.10;;;;;;;;;;5056463;28;20232;-66
2023/07/13 03:26:33;;;;;;;7.00;2.53;;;;;;;;;;5056390;28;20664;-66
2023/07/13 03:28:59;;;;;;;7.40;2.87;;;;;;;;;;5056200;28;20205;-66
2023/07/13 03:31:29;;;;;;;5.80;2.60;;;;;;;;;;5055914;28;20226;-66
2023/07/13 03:33:56;;;;;;;7.73;2.57;;;;;;;;;;5056212;28;20242;-66
2023/07/13 03:36:24;;;;;;;8.37;2.63;;;;;;;;;;5055919;28;20209;-66
2023/07/13 03:38:51;;;;;;;6.23;2.40;;;;;;;;;;5038011;28;20542;-66
2023/07/13 03:41:17;;;;;;;7.50;2.67;;;;;;;;;;5037874;28;20202;-66
2023/07/13 03:43:43;;;;;;;7.53;2.77;;;;;;;;;;5079510;22;20222;-64
2023/07/13 03:46:09;;;;;;;8.50;2.67;;;;;;;;;;5055904;28;20173;-64
2023/07/13 03:48:36;;;;;;;9.53;2.93;;;;;;;;;;5056308;28;20221;-64
2023/07/13 03:51:03;;;;;;;7.93;2.67;;;;;;;;;;5038132;28;20222;-64
2023/07/13 03:53:29;;;;;;;6.37;2.87;;;;;;;;;;5055849;28;20266;-64
2023/07/13 03:55:55;;;;;;;7.70;3.17;;;;;;;;;;5037671;28;20178;-64
2023/07/13 03:58:28;;;;;;;10.63;4.13;;;;;;;;;;5054678;28;20387;-65
2023/07/13 04:00:55;;;;;;;6.77;3.40;;;;;;;;;;5037634;28;20241;-64
2023/07/13 04:03:21;;;;;;;8.90;3.60;;;;;;;;;;5036409;28;20883;-64
2023/07/13 04:05:47;;;;;;;9.77;3.27;;;;;;;;;;5054047;28;20889;-65
2023/07/13 04:08:13;;;;;;;9.05;3.50;;;;;;;;;;5054423;28;20744;-64
2023/07/13 04:10:39;;;;;;;11.48;6.22;;;;;;;;;;5053800;28;20459;-63
2023/07/13 04:13:05;;;;;;;11.45;4.85;;;;;;;;;;5036145;28;20784;-64
2023/07/13 04:15:32;;;;;;;11.93;4.40;;;;;;;;;;5037188;28;20182;-65
2023/07/13 04:17:58;;;;;;;12.63;7.63;;;;;;;;;;5055378;28;20171;-64
2023/07/13 04:20:27;;;;;;;10.98;5.40;;;;;;;;;;5054003;28;20400;-64
2023/07/13 04:22:53;;;;;;;16.50;11.27;;;;;;;;;;5053845;28;20409;-63
2023/07/13 04:25:20;;;;;;;12.60;9.30;;;;;;;;;;5054075;28;20917;-63
2023/07/13 04:27:45;;;;;;;9.87;5.00;;;;;;;;;;5035823;28;20413;-64
2023/07/13 04:30:11;;;;;;;10.80;4.10;;;;;;;;;;5035705;28;20471;-64
2023/07/13 04:32:37;;;;;;;10.15;3.80;;;;;;;;;;5053669;28;20370;-64
2023/07/13 04:35:04;;;;;;;9.00;3.43;;;;;;;;;;5035757;28;20447;-64
2023/07/13 04:37:30;;;;;;;7.85;3.30;;;;;;;;;;5053574;28;20381;-64
2023/07/13 04:39:56;;;;;;;8.85;3.47;;;;;;;;;;5035658;28;20889;-63
2023/07/13 04:42:22;;;;;;;9.77;3.30;;;;;;;;;;5053442;28;20460;-63
2023/07/13 04:44:49;;;;;;;10.75;3.58;;;;;;;;;;5053096;28;20948;-64
2023/07/13 04:47:15;;;;;;;10.30;3.45;;;;;;;;;;5035571;28;20432;-63
2023/07/13 04:49:41;;;;;;;9.50;3.10;;;;;;;;;;5035582;28;20470;-63
2023/07/13 04:52:07;;;;;;;8.50;3.30;;;;;;;;;;5053314;28;20500;-64
2023/07/13 04:54:34;;;;;;;9.63;3.40;;;;;;;;;;5035500;28;20798;-63
2023/07/13 04:57:00;;;;;;;8.75;3.20;;;;;;;;;;5035425;28;20434;-64
2023/07/13 04:59:26;;;;;;;8.07;3.00;;;;;;;;;;5053143;28;20385;-64
2023/07/13 05:01:52;;;;;;;14.70;4.00;;;;;;;;;;5035120;28;20393;-64
2023/07/13 05:04:18;;;;;;;11.73;3.42;;;;;;;;;;5053534;28;20381;-64
2023/07/13 05:06:44;;;;;;;7.95;3.33;;;;;;;;;;5035277;28;20745;-63
2023/07/13 05:09:10;;;;;;;8.17;2.47;;;;;;;;;;5036522;28;20179;-64
2023/07/13 05:11:36;;;;;;;11.80;3.23;;;;;;;;;;5036281;28;20688;-64
2023/07/13 05:14:01;;;;;;;8.27;3.13;;;;;;;;;;5054628;28;20688;-64
2023/07/13 05:16:28;;;;;;;8.53;3.10;;;;;;;;;;5036309;28;20588;-64
2023/07/13 05:18:54;;;;;;;7.90;3.40;;;;;;;;;;5054166;28;20249;-64
2023/07/13 05:21:20;;;;;;;12.67;3.67;;;;;;;;;;5037118;28;20600;-64
2023/07/13 05:23:46;;;;;;;10.77;3.77;;;;;;;;;;5053689;28;20244;-64
2023/07/13 05:26:12;;;;;;;9.57;3.70;;;;;;;;;;5054238;28;20657;-65
2023/07/13 05:28:38;;;;;;;5.73;2.60;;;;;;;;;;5036077;28;20289;-64
2023/07/13 05:31:04;;;;;;;7.23;2.87;;;;;;;;;;5035847;28;20202;-65
2023/07/13 05:33:30;;;;;;;9.57;3.60;;;;;;;;;;5036046;28;20264;-63
2023/07/13 05:35:57;;;;;;;8.57;3.53;;;;;;;;;;5053952;28;20643;-64
2023/07/13 05:38:23;;;;;;;8.30;3.70;;;;;;;;;;5053738;28;20651;-64
2023/07/13 05:40:49;;;;;;;12.93;3.50;;;;;;;;;;5036628;28;20186;-64
2023/07/13 05:43:15;;;;;;;11.27;4.10;;;;;;;;;;5036179;28;20179;-64
2023/07/13 05:45:41;;;;;;;14.30;4.23;;;;;;;;;;5053957;28;20182;-64
2023/07/13 05:48:07;;;;;;;13.97;4.87;;;;;;;;;;5053675;28;20663;-64
2023/07/13 05:50:33;;;;;;;13.10;4.00;;;;;;;;;;5035586;28;20300;-63
2023/07/13 05:52:59;;;;;;;13.83;4.27;;;;;;;;;;5035680;28;20182;-64
2023/07/13 05:55:25;;;;;;;16.50;4.70;;;;;;;;;;5053413;28;20253;-63
2023/07/13 05:57:51;;;;;;;11.00;3.87;;;;;;;;;;5053714;28;20174;-64
2023/07/13 06:00:17;;;;;;;12.27;4.47;;;;;;;;;;5053332;28;20178;-64
2023/07/13 06:02:43;;;;;;;11.67;4.87;;;;;;;;;;5035396;28;20190;-64
2023/07/13 06:05:09;;;;;;;13.53;4.10;;;;;;;;;;5053243;28;20202;-64
2023/07/13 06:07:35;;;;;;;12.53;3.93;;;;;;;;;;5053506;28;20201;-64
2023/07/13 06:10:01;;;;;;;10.93;4.37;;;;;;;;;;5053442;28;20182;-64
2023/07/13 06:12:27;;;;;;;10.03;4.60;;;;;;;;;;5054306;28;20206;-64
2023/07/13 06:14:53;;;;;;;9.77;4.47;;;;;;;;;;5036547;28;20699;-63
2023/07/13 06:17:19;;;;;;;14.07;4.97;;;;;;;;;;5054632;28;20179;-64
2023/07/13 06:19:45;;;;;;;11.10;4.33;;;;;;;;;;5053828;28;20253;-64
2023/07/13 06:22:11;;;;;;;11.13;4.13;;;;;;;;;;5035237;28;20214;-64
2023/07/13 06:24:37;;;;;;;11.93;4.70;;;;;;;;;;5052962;28;20209;-63
2023/07/13 06:27:03;;;;;;;12.13;4.33;;;;;;;;;;5035403;28;20755;-64
2023/07/13 06:29:29;;;;;;;12.30;4.53;;;;;;;;;;5035156;28;20194;-64
2023/07/13 06:31:55;;;;;;;9.53;4.30;;;;;;;;;;5052710;28;20202;-64
2023/07/13 06:34:21;;;;;;;11.27;4.47;;;;;;;;;;5053335;28;20277;-64
2023/07/13 06:36:47;;;;;;;16.73;5.10;;;;;;;;;;5039250;28;20181;-64
2023/07/13 06:39:13;;;;;;;11.07;4.17;;;;;;;;;;5039086;28;20178;-64
2023/07/13 06:41:39;;;;;;;10.07;4.40;;;;;;;;;;5056858;28;20671;-65
2023/07/13 06:44:06;;;;;;;12.73;5.10;;;;;;;;;;5056712;28;20214;-65
2023/07/13 06:46:32;;;;;;;12.60;4.50;;;;;;;;;;5057138;28;20553;-65
2023/07/13 06:48:58;;;;;;;15.47;4.70;;;;;;;;;;5057618;28;20182;-65
2023/07/13 06:51:24;;;;;;;10.97;4.13;;;;;;;;;;5056953;28;20198;-64
2023/07/13 06:53:50;;;;;;;12.63;4.37;;;;;;;;;;5056870;28;20202;-65
2023/07/13 06:56:16;;;;;;;13.13;5.33;;;;;;;;;;5056905;28;20544;-65
2023/07/13 06:58:42;;;;;;;14.80;5.30;;;;;;;;;;5056782;28;20171;-65
2023/07/13 07:01:09;;;;;;;9.97;4.43;;;;;;;;;;5056810;28;20185;-65
2023/07/13 07:03:35;;;;;;;14.63;4.90;;;;;;;;;;5038544;28;20584;-65
2023/07/13 07:06:13;;;;;;;11.50;4.90;;;;;;;;;;5057101;28;20591;-65
2023/07/13 07:08:39;;;;;;;15.10;5.07;;;;;;;;;;5056926;28;20165;-65
2023/07/13 07:11:06;;;;;;;12.43;4.50;;;;;;;;;;5056687;28;20206;-64
2023/07/13 07:13:32;;;;;;;13.07;4.30;;;;;;;;;;5056478;28;20232;-64
2023/07/13 07:15:59;;;;;;;13.87;5.20;;;;;;;;;;5056727;28;20202;-65
2023/07/13 07:18:26;;;;;;;13.63;5.57;;;;;;;;;;5039471;28;20182;-65
2023/07/13 07:20:52;;;;;;;14.00;4.70;;;;;;;;;;5039161;28;20186;-65
2023/07/13 07:23:18;;;;;;;10.17;4.60;;;;;;;;;;5057010;28;20213;-65
2023/07/13 07:25:44;;;;;;;13.67;5.23;;;;;;;;;;5038766;28;20179;-65
2023/07/13 07:28:12;;;;;;;12.23;4.87;;;;;;;;;;5038775;28;20603;-65
2023/07/13 07:30:42;;;;;;;12.23;5.27;;;;;;;;;;5038371;28;20202;-64
2023/07/13 07:33:08;;;;;;;12.67;5.97;;;;;;;;;;5057113;28;20234;-64
2023/07/13 07:35:34;;;;;;;12.43;5.00;;;;;;;;;;5038473;28;20190;-64
2023/07/13 07:38:00;;;;;;;13.87;5.07;;;;;;;;;;5038382;28;20714;-65
2023/07/13 07:40:26;;;;;;;12.40;5.00;;;;;;;;;;5056047;28;20209;-64
2023/07/13 07:42:52;;;;;;;8.10;4.90;;;;;;;;;;5056199;28;20236;-65
2023/07/13 07:45:18;;;;;;;12.37;5.17;;;;;;;;;;5055389;28;20218;-65
2023/07/13 07:47:44;;;;;;;10.77;5.60;;;;;;;;;;5056319;28;20593;-64
2023/07/13 07:50:10;;;;;;;14.03;5.83;;;;;;;;;;5056015;28;20190;-64
2023/07/13 07:52:36;;;;;;;13.13;5.90;;;;;;;;;;5056076;28;20178;-64
2023/07/13 07:55:02;;;;;;;11.83;5.53;;;;;;;;;;5055748;28;20245;-65
2023/07/13 07:57:28;;;;;;;9.80;5.13;;;;;;;;;;5055928;28;20545;-65
2023/07/13 07:59:54;;;;;;;14.17;5.90;;;;;;;;;;5055915;28;20174;-65
2023/07/13 08:02:20;;;;;;;12.67;5.47;;;;;;;;;;5037633;28;20545;-64
2023/07/13 08:04:46;;;;;;;11.47;5.10;;;;;;;;;;5055593;28;20665;-65
2023/07/13 08:07:12;;;;;;;15.50;5.27;;;;;;;;;;5055411;28;20181;-64
2023/07/13 08:09:38;;;;;;;8.27;4.80;;;;;;;;;;5055651;28;20181;-64
2023/07/13 08:12:04;;;;;;;10.53;4.93;;;;;;;;;;5055605;28;20202;-64
2023/07/13 08:14:30;;;;;;;9.50;4.90;;;;;;;;;;5055186;28;20199;-63
2023/07/13 08:16:56;;;;;;;11.23;4.83;;;;;;;;;;5037344;28;20209;-64
2023/07/13 08:19:21;;;;;;;10.50;4.80;;;;;;;;;;5055103;28;20177;-64
2023/07/13 08:21:48;;;;;;;12.90;4.67;;;;;;;;;;5055144;28;20185;-64
2023/07/13 08:24:14;;;;;;;9.97;5.37;;;;;;;;;;5037126;28;20206;-65
2023/07/13 08:26:40;;;;;;;13.83;4.87;;;;;;;;;;5055331;28;20703;-64
2023/07/13 08:29:06;;;;;;;13.90;5.30;;;;;;;;;;5055243;28;20198;-64
2023/07/13 08:31:32;;;;;;;8.57;4.33;;;;;;;;;;5054798;28;20208;-64
2023/07/13 08:33:58;;;;;;;9.23;4.40;;;;;;;;;;5036887;28;20198;-64
2023/07/13 08:36:26;;;;;;;10.83;5.00;;;;;;;;;;5054824;28;20179;-64
2023/07/13 08:38:52;;;;;;;10.00;4.40;;;;;;;;;;5055252;28;20199;-64
2023/07/13 08:41:19;;;;;;;11.70;4.70;;;;;;;;;;5054915;28;20195;-65
2023/07/13 08:43:48;;;;;;;11.77;4.80;;;;;;;;;;5054491;28;20590;-64
2023/07/13 08:46:18;;;;;;;12.47;5.00;;;;;;;;;;5054740;28;20261;-64
2023/07/13 08:48:55;;;;;;;9.07;4.43;;;;;;;;;;5036694;28;20186;-65
2023/07/13 08:51:21;;;;;;;13.80;5.10;;;;;;;;;;5054346;28;20289;-64
2023/07/13 08:53:49;;;;;;;8.67;4.10;;;;;;;;;;5036614;28;20237;-65
2023/07/13 08:56:23;;;;;;;11.87;4.30;;;;;;;;;;5054405;28;20181;-64
2023/07/13 08:58:54;;;;;;;9.57;4.73;;;;;;;;;;5035684;28;20279;-64
2023/07/13 09:01:39;;;;;;;9.80;4.40;;;;;;;;;;5054484;28;20743;-64
2023/07/13 09:04:05;;;;;;;11.43;4.47;;;;;;;;;;5054520;28;20197;-64
2023/07/13 09:06:35;;;;;;;12.97;5.00;;;;;;;;;;5036476;28;20178;-64
2023/07/13 09:09:09;;;;;;;14.87;4.90;;;;;;;;;;5054084;28;20185;-64
2023/07/13 09:11:35;;;;;;;8.23;4.53;;;;;;;;;;5054103;28;20797;-64
2023/07/13 09:14:24;;;;;;;8.20;4.67;;;;;;;;;;5054301;28;20273;-64
2023/07/13 09:16:51;;;;;;;8.87;4.47;;;;;;;;;;5054250;28;20162;-64
2023/07/13 09:19:22;;;;;;;8.67;4.67;;;;;;;;;;5035967;28;20185;-63
2023/07/13 09:21:48;;;;;;;12.37;4.80;;;;;;;;;;5054293;28;20527;-64
2023/07/13 09:24:23;;;;;;;11.40;4.83;;;;;;;;;;5054023;28;20281;-63
2023/07/13 09:26:49;;;;;;;11.80;4.60;;;;;;;;;;5054161;28;20706;-64
2023/07/13 09:29:20;;;;;;;11.83;4.87;;;;;;;;;;5036060;28;20320;-64
2023/07/13 09:31:47;;;;;;;7.87;4.90;;;;;;;;;;5053757;28;20201;-64
2023/07/13 09:34:14;;;;;;;9.77;4.43;;;;;;;;;;5053584;28;20577;-64
2023/07/13 09:36:40;;;;;;;10.30;4.63;;;;;;;;;;5054163;28;20178;-64
2023/07/13 09:39:11;;;;;;;10.13;4.10;;;;;;;;;;5035825;28;20690;-64
2023/07/13 09:41:41;;;;;;;11.40;4.60;;;;;;;;;;5036064;28;20196;-64
2023/07/13 09:44:11;;;;;;;13.73;4.53;;;;;;;;;;5035585;28;20268;-64
2023/07/13 09:46:38;;;;;;;11.37;4.63;;;;;;;;;;5035635;28;20186;-64
2023/07/13 09:49:04;;;;;;;8.50;4.63;;;;;;;;;;5036584;28;20186;-65
2023/07/13 09:51:30;;;;;;;14.40;4.97;;;;;;;;;;5053305;28;20692;-65
2023/07/13 09:53:57;;;;;;;9.40;3.73;;;;;;;;;;5054244;28;20206;-65
2023/07/13 09:56:23;;;;;;;9.90;4.20;;;;;;;;;;5054118;28;20253;-65
2023/07/13 09:58:50;;;;;;;9.57;4.20;;;;;;;;;;5053953;28;20243;-65
2023/07/13 10:01:16;;;;;;;12.67;4.20;;;;;;;;;;5053440;28;20182;-65
2023/07/13 10:03:53;;;;;;;8.73;3.63;;;;;;;;;;5053399;28;20198;-65
2023/07/13 10:06:21;;;;;;;8.03;4.13;;;;;;;;;;5053681;28;20655;-65
2023/07/13 10:08:47;;;;;;;8.80;4.20;;;;;;;;;;5053310;28;20175;-64
2023/07/13 10:11:29;;;;;;;10.97;4.00;;;;;;;;;;5035267;28;20206;-64
2023/07/13 10:13:56;;;;;;;12.53;4.27;;;;;;;;;;5035195;28;20683;-64
2023/07/13 10:16:23;;;;;;;8.80;3.60;;;;;;;;;;5053313;28;20167;-64
2023/07/13 10:18:51;;;;;;;10.43;4.07;;;;;;;;;;5035406;28;20268;-64
2023/07/13 10:21:18;;;;;;;10.43;4.00;;;;;;;;;;5053546;28;20179;-65
2023/07/13 10:23:47;;;;;;;11.20;3.80;;;;;;;;;;5053545;28;20194;-65
2023/07/13 10:26:17;;;;;;;15.13;4.27;;;;;;;;;;5053092;28;20549;-66
2023/07/13 10:28:45;;;;;;;6.73;3.30;;;;;;;;;;5052993;28;20182;-66
2023/07/13 10:31:12;;;;;;;11.53;4.00;;;;;;;;;;5075199;23;20321;-68
2023/07/13 10:33:38;;;;;;;8.83;3.40;;;;;;;;;;5052839;28;20191;-68
2023/07/13 10:36:23;;;;;;;13.40;4.20;;;;;;;;;;5035031;28;20206;-68
2023/07/13 10:38:50;;;;;;;8.07;3.30;;;;;;;;;;5035978;28;20535;-68
2023/07/13 10:41:19;;;;;;;7.10;3.53;;;;;;;;;;5052922;28;20201;-67
2023/07/13 10:43:51;;;;;;;9.40;3.60;;;;;;;;;;5052935;28;20248;-68
2023/07/13 10:46:19;;;;;;;9.03;2.73;;;;;;;;;;5052883;28;20167;-67
2023/07/13 10:48:47;;;;;;;7.23;3.60;;;;;;;;;;5052608;28;20190;-68
2023/07/13 10:51:15;;;;;;;5.40;2.93;;;;;;;;;;5052778;28;20272;-68
2023/07/13 10:53:41;;;;;;;6.73;3.07;;;;;;;;;;5052731;28;20174;-67
2023/07/13 10:56:08;;;;;;;10.50;3.50;;;;;;;;;;5052952;28;20236;-67
2023/07/13 10:58:35;;;;;;;11.00;3.83;;;;;;;;;;5052642;28;20167;-68
2023/07/13 11:01:04;;;;;;;9.00;3.57;;;;;;;;;;5052911;28;20179;-67
2023/07/13 11:03:31;;;;;;;10.23;3.33;;;;;;;;;;5034697;28;20199;-68
2023/07/13 11:06:09;;;;;;;7.17;3.10;;;;;;;;;;5034792;28;20224;-68
2023/07/13 11:08:51;;;;;;;9.00;3.17;;;;;;;;;;5055260;28;20209;-67
2023/07/13 11:11:20;;;;;;;8.23;2.83;;;;;;;;;;5055848;28;20213;-68
2023/07/13 11:13:47;;;;;;;9.33;3.27;;;;;;;;;;5054746;28;20175;-68
2023/07/13 11:16:23;;;;;;;10.13;3.23;;;;;;;;;;5034673;28;20637;-67
2023/07/13 11:18:53;;;;;;;7.03;3.40;;;;;;;;;;5034609;28;20182;-68
2023/07/13 11:21:20;;;;;;;7.87;3.20;;;;;;;;;;5036528;28;20202;-67
2023/07/13 11:23:53;;;;;;;8.03;3.30;;;;;;;;;;5056347;28;20179;-68
2023/07/13 11:26:38;;;;;;;12.13;3.43;;;;;;;;;;5038279;28;20659;-68
2023/07/13 11:29:13;;;;;;;9.57;3.23;;;;;;;;;;5057196;28;20623;-68
2023/07/13 11:31:41;;;;;;;7.77;3.03;;;;;;;;;;5055758;28;20209;-68
2023/07/13 11:34:11;;;;;;;11.20;3.20;;;;;;;;;;5056017;28;20178;-68
2023/07/13 11:36:40;;;;;;;5.27;2.70;;;;;;;;;;5055904;28;20177;-68
2023/07/13 11:39:30;;;;;;;6.57;3.00;;;;;;;;;;5037999;28;20179;-68
2023/07/13 11:41:57;;;;;;;5.27;2.50;;;;;;;;;;5055817;28;20190;-68
2023/07/13 11:44:24;;;;;;;6.53;2.83;;;;;;;;;;5055925;28;20209;-68
2023/07/13 11:46:51;;;;;;;6.03;3.23;;;;;;;;;;5055690;28;20257;-68
2023/07/13 11:49:18;;;;;;;6.53;3.20;;;;;;;;;;5055708;28;20182;-68
2023/07/13 11:51:45;;;;;;;5.23;2.77;;;;;;;;;;5055319;28;20210;-68
2023/07/13 11:54:20;;;;;;;6.30;2.57;;;;;;;;;;5055690;28;20198;-68
2023/07/13 11:56:46;;;;;;;6.97;3.10;;;;;;;;;;5055737;28;20498;-68
2023/07/13 11:59:13;;;;;;;7.80;2.50;;;;;;;;;;5055590;28;20308;-68
2023/07/13 12:01:44;;;;;;;8.43;2.80;;;;;;;;;;5055505;28;20328;-68
2023/07/13 12:04:21;;;;;;;5.90;2.40;;;;;;;;;;5055897;28;20166;-67
2023/07/13 12:06:47;;;;;;;5.33;2.63;;;;;;;;;;5055476;28;20541;-68
2023/07/13 12:09:18;;;;;;;7.30;3.10;;;;;;;;;;5055432;28;20182;-68
2023/07/13 12:11:44;;;;;;;4.20;2.33;;;;;;;;;;5055490;28;20683;-68
2023/07/13 12:14:16;;;;;;;6.97;2.53;;;;;;;;;;5037347;28;20269;-68
2023/07/13 12:16:43;;;;;;;5.40;3.03;;;;;;;;;;5037201;28;20214;-68
2023/07/13 12:19:17;;;;;;;6.40;2.70;;;;;;;;;;5055229;28;20179;-68
2023/07/13 12:21:44;;;;;;;7.17;2.90;;;;;;;;;;5055869;28;20193;-68
2023/07/13 12:24:17;;;;;;;5.27;2.73;;;;;;;;;;5055014;28;20181;-68
2023/07/13 12:26:43;;;;;;;7.00;3.00;;;;;;;;;;5055249;28;20182;-68
2023/07/13 12:29:13;;;;;;;7.93;3.20;;;;;;;;;;5055136;28;20546;-68
2023/07/13 12:31:44;;;;;;;7.30;2.83;;;;;;;;;;5036842;28;20229;-68
2023/07/13 12:34:21;;;;;;;4.43;2.30;;;;;;;;;;5037068;28;20186;-68
2023/07/13 12:36:48;;;;;;;5.93;2.50;;;;;;;;;;5054744;28;20178;-68
2023/07/13 12:39:18;;;;;;;6.70;2.77;;;;;;;;;;5055118;28;20171;-68
2023/07/13 12:41:45;;;;;;;4.73;2.60;;;;;;;;;;5054675;28;20252;-68
2023/07/13 12:44:28;;;;;;;6.93;2.93;;;;;;;;;;5054700;28;20261;-68
2023/07/13 12:46:57;;;;;;;5.90;2.63;;;;;;;;;;5054557;28;20163;-68
2023/07/13 12:49:28;;;;;;;5.00;2.20;;;;;;;;;;5055396;28;20214;-68
2023/07/13 12:51:59;;;;;;;7.63;2.60;;;;;;;;;;5054832;28;20268;-68
2023/07/13 12:54:25;;;;;;;7.80;2.20;;;;;;;;;;5054573;28;20174;-68
2023/07/13 12:56:53;;;;;;;6.10;2.80;;;;;;;;;;5036553;28;20185;-68
2023/07/13 12:59:20;;;;;;;5.40;2.70;;;;;;;;;;5054658;28;20543;-68
2023/07/13 13:01:47;;;;;;;6.10;2.80;;;;;;;;;;5054376;28;20224;-68
2023/07/13 13:04:13;;;;;;;4.07;2.43;;;;;;;;;;5054890;28;20182;-68
2023/07/13 13:06:42;;;;;;;7.50;2.93;;;;;;;;;;5036431;28;20206;-68
2023/07/13 13:09:11;;;;;;;5.47;2.70;;;;;;;;;;5036345;28;20235;-69
2023/07/13 13:11:37;;;;;;;5.30;2.30;;;;;;;;;;5036092;28;20222;-68
2023/07/13 13:14:04;;;;;;;4.80;2.47;;;;;;;;;;5054323;28;20587;-68
2023/07/13 13:16:31;;;;;;;3.47;2.40;;;;;;;;;;5036133;28;20174;-68
2023/07/13 13:18:59;;;;;;;4.97;2.70;;;;;;;;;;5054060;28;20612;-68
2023/07/13 13:21:26;;;;;;;3.80;2.30;;;;;;;;;;5053912;28;20194;-69
2023/07/13 13:23:53;;;;;;;5.97;2.63;;;;;;;;;;5053783;28;20185;-68
2023/07/13 13:26:19;;;;;;;4.70;2.40;;;;;;;;;;5053800;28;20178;-68
2023/07/13 13:28:47;;;;;;;6.93;2.63;;;;;;;;;;5036633;28;20607;-69
2023/07/13 13:31:14;;;;;;;4.60;2.50;;;;;;;;;;5053800;28;20594;-68
2023/07/13 13:33:45;;;;;;;6.37;2.77;;;;;;;;;;5054420;28;20224;-69
2023/07/13 13:36:18;;;;;;;5.83;2.63;;;;;;;;;;5036301;28;20178;-68
2023/07/13 13:38:45;;;;;;;5.47;2.40;;;;;;;;;;5053579;28;20265;-68
2023/07/13 13:41:13;;;;;;;5.33;2.60;;;;;;;;;;5035645;28;20202;-68
2023/07/13 13:43:39;;;;;;;3.50;2.20;;;;;;;;;;5053182;28;20175;-68
2023/07/13 13:46:12;;;;;;;3.30;1.97;;;;;;;;;;5035605;28;20219;-68
2023/07/13 13:48:37;;;;;;;5.63;2.50;;;;;;;;;;5053933;28;20163;-68
2023/07/13 13:51:10;;;;;;;5.00;2.30;;;;;;;;;;5053229;28;20207;-68
2023/07/13 13:53:36;;;;;;;5.17;2.80;;;;;;;;;;5053723;28;20163;-68
2023/07/13 13:56:02;;;;;;;2.77;1.97;;;;;;;;;;5053706;28;20181;-68
2023/07/13 13:58:30;;;;;;;4.40;2.60;;;;;;;;;;5054684;28;20308;-68
2023/07/13 14:00:57;;;;;;;8.43;3.07;;;;;;;;;;5055220;28;20182;-68
2023/07/13 14:03:24;;;;;;;5.73;3.00;;;;;;;;;;5053221;28;20182;-68
2023/07/13 14:05:50;;;;;;;6.23;3.37;;;;;;;;;;5053392;28;20178;-68
2023/07/13 14:08:17;;;;;;;5.53;3.10;;;;;;;;;;5053049;28;20597;-68
2023/07/13 14:10:45;;;;;;;5.77;2.97;;;;;;;;;;5034955;28;20206;-68
2023/07/13 14:13:18;;;;;;;6.00;3.10;;;;;;;;;;5052983;28;20601;-67
2023/07/13 14:15:45;;;;;;;5.40;3.10;;;;;;;;;;5035120;28;20554;-68
2023/07/13 14:18:11;;;;;;;6.30;3.33;;;;;;;;;;5052938;28;20232;-68
2023/07/13 14:20:37;;;;;;;6.10;3.20;;;;;;;;;;5035062;28;20265;-68
2023/07/13 14:23:03;;;;;;;8.47;3.40;;;;;;;;;;5052835;28;20202;-68
2023/07/13 14:25:30;;;;;;;4.87;2.70;;;;;;;;;;5052731;28;20178;-68
2023/07/13 14:28:07;;;;;;;6.80;3.30;;;;;;;;;;5052756;28;20182;-68
2023/07/13 14:30:33;;;;;;;5.87;3.30;;;;;;;;;;5053242;28;20563;-67
2023/07/13 14:32:59;;;;;;;7.83;3.43;;;;;;;;;;5052497;28;20285;-68
2023/07/13 14:35:26;;;;;;;6.50;3.43;;;;;;;;;;5053295;28;20516;-68
2023/07/13 14:37:52;;;;;;;3.87;2.80;;;;;;;;;;5052650;28;20179;-68
2023/07/13 14:40:19;;;;;;;7.40;3.40;;;;;;;;;;5052775;28;20255;-68